RJCC/CTS METAR and TAF weather

Enter ICAO airport designator
Station Type Date Time Source
RJCC METAR 2022/06/27 07:30 UTC NOAA

RJCC 270730Z 35012KT 9999 FEW008 BKN010 BKN012 20/17 Q1006


Station Type Date Time Source
RJCC Decoded METAR 2022/06/27 07:30 UTC NOAA

Chitose Ab, Japan (RJCC) 42-48N 141-40E 30M
Jun 27, 2022 - 03:30 AM EDT / 2022.06.27 0730 UTC
Wind: from the N (350 degrees) at 14 MPH (12 KT):0
Visibility: greater than 7 mile(s):0
Sky conditions: mostly cloudy
Temperature: 68 F (20 C)
Dew Point: 62 F (17 C)
Relative Humidity: 82%
Pressure (altimeter): 29.71 in. Hg (1006 hPa)
ob: RJCC 270730Z 35012KT 9999 FEW008 BKN010 BKN012 20/17 Q1006
cycle: 7

Station Type Date Time Source
RJCC TAF 2022/06/27 06:34 UTC NOAA

TAF RJCC 270505Z 2706/2812 35012KT 9999 FEW008 BKN015
TEMPO 2711/2718 FEW003 BKN005
BECMG 2716/2718 17012KT
TEMPO 2803/2806 FEW003 BKN006
TEMPO 2806/2812 3000 SHRA BR FEW002 BKN004

Example: see airport list